sensor_id;sensor_type;location;lat;lon;timestamp;temperature;humidity
25923;DHT22;13725;51.170;4.442;2022-09-06T00:00:05;17.80;99.90
25923;DHT22;13725;51.170;4.442;2022-09-06T00:02:38;17.80;99.90
25923;DHT22;13725;51.170;4.442;2022-09-06T00:05:05;17.80;99.90
25923;DHT22;13725;51.170;4.442;2022-09-06T00:07:32;17.90;99.90
25923;DHT22;13725;51.170;4.442;2022-09-06T00:09:58;17.80;99.90
25923;DHT22;13725;51.170;4.442;2022-09-06T00:12:25;17.90;99.90
25923;DHT22;13725;51.170;4.442;2022-09-06T00:14:51;17.90;99.90
25923;DHT22;13725;51.170;4.442;2022-09-06T00:17:17;17.90;99.90
25923;DHT22;13725;51.170;4.442;2022-09-06T00:19:42;17.90;99.90
25923;DHT22;13725;51.170;4.442;2022-09-06T00:22:08;18.00;99.90
25923;DHT22;13725;51.170;4.442;2022-09-06T00:24:34;18.00;99.90
25923;DHT22;13725;51.170;4.442;2022-09-06T00:27:05;18.10;99.90
25923;DHT22;13725;51.170;4.442;2022-09-06T00:29:31;18.10;99.90
25923;DHT22;13725;51.170;4.442;2022-09-06T00:31:57;18.20;99.90
25923;DHT22;13725;51.170;4.442;2022-09-06T00:34:24;18.20;99.90
25923;DHT22;13725;51.170;4.442;2022-09-06T00:36:50;18.30;99.90
25923;DHT22;13725;51.170;4.442;2022-09-06T00:39:16;18.40;99.90
25923;DHT22;13725;51.170;4.442;2022-09-06T00:41:42;18.40;99.90
25923;DHT22;13725;51.170;4.442;2022-09-06T00:44:07;18.50;99.90
25923;DHT22;13725;51.170;4.442;2022-09-06T00:46:34;18.50;99.90
25923;DHT22;13725;51.170;4.442;2022-09-06T00:49:10;18.50;99.90
25923;DHT22;13725;51.170;4.442;2022-09-06T00:51:38;18.60;99.90
25923;DHT22;13725;51.170;4.442;2022-09-06T00:54:06;18.60;99.90
25923;DHT22;13725;51.170;4.442;2022-09-06T00:56:37;18.70;99.90
25923;DHT22;13725;51.170;4.442;2022-09-06T00:59:03;18.50;99.90
25923;DHT22;13725;51.170;4.442;2022-09-06T01:01:29;18.50;99.90
25923;DHT22;13725;51.170;4.442;2022-09-06T01:03:55;18.40;99.90
25923;DHT22;13725;51.170;4.442;2022-09-06T01:06:43;18.40;99.90
25923;DHT22;13725;51.170;4.442;2022-09-06T01:09:31;18.40;99.90
25923;DHT22;13725;51.170;4.442;2022-09-06T01:12:24;18.30;99.90
25923;DHT22;13725;51.170;4.442;2022-09-06T01:15:10;18.20;99.90
25923;DHT22;13725;51.170;4.442;2022-09-06T01:17:44;18.20;99.90
25923;DHT22;13725;51.170;4.442;2022-09-06T01:29:00;18.00;99.90
25923;DHT22;13725;51.170;4.442;2022-09-06T01:34:20;17.90;99.90
25923;DHT22;13725;51.170;4.442;2022-09-06T01:36:53;17.90;99.90
25923;DHT22;13725;51.170;4.442;2022-09-06T01:39:28;17.80;99.90
25923;DHT22;13725;51.170;4.442;2022-09-06T01:41:56;17.80;99.90
25923;DHT22;13725;51.170;4.442;2022-09-06T01:44:24;17.90;99.90
25923;DHT22;13725;51.170;4.442;2022-09-06T01:47:21;17.80;99.90
25923;DHT22;13725;51.170;4.442;2022-09-06T02:04:25;17.70;99.90
25923;DHT22;13725;51.170;4.442;2022-09-06T02:07:09;17.70;99.90
25923;DHT22;13725;51.170;4.442;2022-09-06T02:09:39;17.70;99.90
25923;DHT22;13725;51.170;4.442;2022-09-06T02:12:08;17.70;99.90
25923;DHT22;13725;51.170;4.442;2022-09-06T02:15:17;17.70;99.90
25923;DHT22;13725;51.170;4.442;2022-09-06T02:17:55;17.60;99.90
25923;DHT22;13725;51.170;4.442;2022-09-06T02:20:25;17.70;99.90
25923;DHT22;13725;51.170;4.442;2022-09-06T02:22:56;17.60;99.90
25923;DHT22;13725;51.170;4.442;2022-09-06T02:25:36;17.70;99.90
25923;DHT22;13725;51.170;4.442;2022-09-06T02:28:05;17.70;99.90
25923;DHT22;13725;51.170;4.442;2022-09-06T02:30:35;17.60;99.90
25923;DHT22;13725;51.170;4.442;2022-09-06T02:33:10;17.60;99.90
25923;DHT22;13725;51.170;4.442;2022-09-06T02:35:46;17.60;99.90
25923;DHT22;13725;51.170;4.442;2022-09-06T02:38:14;17.60;99.90
25923;DHT22;13725;51.170;4.442;2022-09-06T02:40:40;17.60;99.90
25923;DHT22;13725;51.170;4.442;2022-09-06T02:43:08;17.60;99.90
25923;DHT22;13725;51.170;4.442;2022-09-06T02:45:34;17.50;99.90
25923;DHT22;13725;51.170;4.442;2022-09-06T02:48:00;17.50;99.90
25923;DHT22;13725;51.170;4.442;2022-09-06T02:50:25;17.50;99.90
25923;DHT22;13725;51.170;4.442;2022-09-06T02:53:10;17.50;99.90
25923;DHT22;13725;51.170;4.442;2022-09-06T02:55:37;17.50;99.90
25923;DHT22;13725;51.170;4.442;2022-09-06T02:58:03;17.50;99.90
25923;DHT22;13725;51.170;4.442;2022-09-06T03:00:30;17.50;99.90
25923;DHT22;13725;51.170;4.442;2022-09-06T03:02:56;17.60;99.90
25923;DHT22;13725;51.170;4.442;2022-09-06T03:05:23;17.60;99.90
25923;DHT22;13725;51.170;4.442;2022-09-06T03:07:49;17.70;99.90
25923;DHT22;13725;51.170;4.442;2022-09-06T03:10:15;17.50;99.90
25923;DHT22;13725;51.170;4.442;2022-09-06T03:12:42;17.50;99.90
25923;DHT22;13725;51.170;4.442;2022-09-06T03:15:08;17.50;99.90
25923;DHT22;13725;51.170;4.442;2022-09-06T03:17:34;17.50;99.90
25923;DHT22;13725;51.170;4.442;2022-09-06T03:20:00;17.40;99.90
25923;DHT22;13725;51.170;4.442;2022-09-06T03:22:26;17.40;99.90
25923;DHT22;13725;51.170;4.442;2022-09-06T03:24:52;17.40;99.90
25923;DHT22;13725;51.170;4.442;2022-09-06T03:27:18;17.40;99.90
25923;DHT22;13725;51.170;4.442;2022-09-06T03:29:43;17.40;99.90
25923;DHT22;13725;51.170;4.442;2022-09-06T03:32:09;17.40;99.90
25923;DHT22;13725;51.170;4.442;2022-09-06T03:34:35;17.50;99.90
25923;DHT22;13725;51.170;4.442;2022-09-06T03:37:01;17.40;99.90
25923;DHT22;13725;51.170;4.442;2022-09-06T03:39:26;17.40;99.90
25923;DHT22;13725;51.170;4.442;2022-09-06T03:41:52;17.40;99.90
25923;DHT22;13725;51.170;4.442;2022-09-06T03:44:18;17.40;99.90
25923;DHT22;13725;51.170;4.442;2022-09-06T03:46:44;17.40;99.90
25923;DHT22;13725;51.170;4.442;2022-09-06T03:49:10;17.40;99.90
25923;DHT22;13725;51.170;4.442;2022-09-06T03:51:36;17.30;99.90
25923;DHT22;13725;51.170;4.442;2022-09-06T03:54:02;17.30;99.90
25923;DHT22;13725;51.170;4.442;2022-09-06T03:56:28;17.20;99.90
25923;DHT22;13725;51.170;4.442;2022-09-06T03:58:53;17.30;99.90
25923;DHT22;13725;51.170;4.442;2022-09-06T04:01:19;17.30;99.90
25923;DHT22;13725;51.170;4.442;2022-09-06T04:03:45;17.30;99.90
25923;DHT22;13725;51.170;4.442;2022-09-06T04:06:12;17.20;99.90
25923;DHT22;13725;51.170;4.442;2022-09-06T04:08:38;17.20;99.90
25923;DHT22;13725;51.170;4.442;2022-09-06T04:11:04;17.20;99.90
25923;DHT22;13725;51.170;4.442;2022-09-06T04:13:31;17.20;99.90
25923;DHT22;13725;51.170;4.442;2022-09-06T04:15:57;17.30;99.90
25923;DHT22;13725;51.170;4.442;2022-09-06T04:18:23;17.30;99.90
25923;DHT22;13725;51.170;4.442;2022-09-06T04:20:51;17.30;99.90
25923;DHT22;13725;51.170;4.442;2022-09-06T04:23:18;17.30;99.90
25923;DHT22;13725;51.170;4.442;2022-09-06T04:25:49;17.20;99.90
25923;DHT22;13725;51.170;4.442;2022-09-06T04:28:15;17.10;99.90
25923;DHT22;13725;51.170;4.442;2022-09-06T04:30:43;17.00;99.90
25923;DHT22;13725;51.170;4.442;2022-09-06T04:33:09;17.00;99.90
25923;DHT22;13725;51.170;4.442;2022-09-06T04:35:35;17.10;99.90
25923;DHT22;13725;51.170;4.442;2022-09-06T04:38:02;17.00;99.90
25923;DHT22;13725;51.170;4.442;2022-09-06T04:40:29;17.00;99.90
25923;DHT22;13725;51.170;4.442;2022-09-06T04:42:55;17.00;99.90
25923;DHT22;13725;51.170;4.442;2022-09-06T04:45:20;17.00;99.90
25923;DHT22;13725;51.170;4.442;2022-09-06T04:47:46;17.00;99.90
25923;DHT22;13725;51.170;4.442;2022-09-06T04:50:12;17.00;99.90
25923;DHT22;13725;51.170;4.442;2022-09-06T04:52:38;17.00;99.90
25923;DHT22;13725;51.170;4.442;2022-09-06T04:55:04;17.00;99.90
25923;DHT22;13725;51.170;4.442;2022-09-06T04:57:30;17.00;99.90
25923;DHT22;13725;51.170;4.442;2022-09-06T04:59:55;17.00;99.90
25923;DHT22;13725;51.170;4.442;2022-09-06T05:02:21;17.00;99.90
25923;DHT22;13725;51.170;4.442;2022-09-06T05:04:47;17.10;99.90
25923;DHT22;13725;51.170;4.442;2022-09-06T05:07:12;17.00;99.90
25923;DHT22;13725;51.170;4.442;2022-09-06T05:09:38;17.10;99.90
25923;DHT22;13725;51.170;4.442;2022-09-06T05:12:04;17.00;99.90
25923;DHT22;13725;51.170;4.442;2022-09-06T05:14:29;17.00;99.90
25923;DHT22;13725;51.170;4.442;2022-09-06T05:16:55;17.00;99.90
25923;DHT22;13725;51.170;4.442;2022-09-06T05:19:21;17.00;99.90
25923;DHT22;13725;51.170;4.442;2022-09-06T05:21:47;17.00;99.90
25923;DHT22;13725;51.170;4.442;2022-09-06T05:24:12;17.00;99.90
25923;DHT22;13725;51.170;4.442;2022-09-06T05:26:38;17.10;99.90
25923;DHT22;13725;51.170;4.442;2022-09-06T05:29:04;17.00;99.90
25923;DHT22;13725;51.170;4.442;2022-09-06T05:31:33;17.10;99.90
25923;DHT22;13725;51.170;4.442;2022-09-06T05:33:59;17.10;99.90
25923;DHT22;13725;51.170;4.442;2022-09-06T05:36:26;17.10;99.90
25923;DHT22;13725;51.170;4.442;2022-09-06T05:38:53;17.10;99.90
25923;DHT22;13725;51.170;4.442;2022-09-06T05:41:19;17.10;99.90
25923;DHT22;13725;51.170;4.442;2022-09-06T05:43:45;17.20;99.90
25923;DHT22;13725;51.170;4.442;2022-09-06T05:46:11;17.20;99.90
25923;DHT22;13725;51.170;4.442;2022-09-06T05:48:38;17.30;99.90
25923;DHT22;13725;51.170;4.442;2022-09-06T05:51:08;17.40;99.90
25923;DHT22;13725;51.170;4.442;2022-09-06T05:53:40;17.40;99.90
25923;DHT22;13725;51.170;4.442;2022-09-06T05:56:07;17.50;99.90
25923;DHT22;13725;51.170;4.442;2022-09-06T05:58:33;17.60;99.90
25923;DHT22;13725;51.170;4.442;2022-09-06T06:01:19;17.90;99.90
25923;DHT22;13725;51.170;4.442;2022-09-06T06:03:53;18.60;99.90
25923;DHT22;13725;51.170;4.442;2022-09-06T06:06:21;19.30;99.90
25923;DHT22;13725;51.170;4.442;2022-09-06T06:08:47;19.90;99.90
25923;DHT22;13725;51.170;4.442;2022-09-06T06:11:13;20.50;99.90
25923;DHT22;13725;51.170;4.442;2022-09-06T06:13:39;20.50;99.90
25923;DHT22;13725;51.170;4.442;2022-09-06T06:16:06;20.60;99.90
25923;DHT22;13725;51.170;4.442;2022-09-06T06:18:33;21.40;99.90
25923;DHT22;13725;51.170;4.442;2022-09-06T06:21:15;22.00;99.90
25923;DHT22;13725;51.170;4.442;2022-09-06T06:23:43;23.20;99.90
25923;DHT22;13725;51.170;4.442;2022-09-06T06:26:10;24.10;99.90
25923;DHT22;13725;51.170;4.442;2022-09-06T06:28:37;25.00;99.90
25923;DHT22;13725;51.170;4.442;2022-09-06T06:31:05;25.10;99.90
25923;DHT22;13725;51.170;4.442;2022-09-06T06:33:31;25.20;99.90
25923;DHT22;13725;51.170;4.442;2022-09-06T06:35:58;25.20;99.90
25923;DHT22;13725;51.170;4.442;2022-09-06T06:38:32;25.80;99.90
25923;DHT22;13725;51.170;4.442;2022-09-06T06:40:59;26.30;99.90
25923;DHT22;13725;51.170;4.442;2022-09-06T06:43:26;26.80;99.90
25923;DHT22;13725;51.170;4.442;2022-09-06T06:45:52;26.30;99.90
25923;DHT22;13725;51.170;4.442;2022-09-06T06:48:17;26.10;99.90
25923;DHT22;13725;51.170;4.442;2022-09-06T06:50:43;27.00;99.90
25923;DHT22;13725;51.170;4.442;2022-09-06T06:53:10;27.40;99.90
25923;DHT22;13725;51.170;4.442;2022-09-06T06:55:36;27.60;99.90
25923;DHT22;13725;51.170;4.442;2022-09-06T06:58:02;28.50;99.90
25923;DHT22;13725;51.170;4.442;2022-09-06T07:00:28;28.40;99.90
25923;DHT22;13725;51.170;4.442;2022-09-06T07:02:54;28.90;99.90
25923;DHT22;13725;51.170;4.442;2022-09-06T07:05:23;29.90;99.90
25923;DHT22;13725;51.170;4.442;2022-09-06T07:07:49;30.50;99.90
25923;DHT22;13725;51.170;4.442;2022-09-06T07:10:15;30.80;99.90
25923;DHT22;13725;51.170;4.442;2022-09-06T07:12:40;31.20;99.90
25923;DHT22;13725;51.170;4.442;2022-09-06T07:15:07;31.90;99.90
25923;DHT22;13725;51.170;4.442;2022-09-06T07:17:33;32.80;99.90
25923;DHT22;13725;51.170;4.442;2022-09-06T07:19:59;33.40;99.90
25923;DHT22;13725;51.170;4.442;2022-09-06T07:22:25;33.80;99.90
25923;DHT22;13725;51.170;4.442;2022-09-06T07:24:50;34.30;99.90
25923;DHT22;13725;51.170;4.442;2022-09-06T07:27:16;34.70;99.90
25923;DHT22;13725;51.170;4.442;2022-09-06T07:29:42;35.20;99.70
25923;DHT22;13725;51.170;4.442;2022-09-06T07:32:08;34.90;98.00
25923;DHT22;13725;51.170;4.442;2022-09-06T07:34:33;34.90;97.30
25923;DHT22;13725;51.170;4.442;2022-09-06T07:37:02;35.60;97.00
25923;DHT22;13725;51.170;4.442;2022-09-06T07:39:28;36.10;95.10
25923;DHT22;13725;51.170;4.442;2022-09-06T07:41:55;36.50;93.60
25923;DHT22;13725;51.170;4.442;2022-09-06T07:44:20;36.90;93.10
25923;DHT22;13725;51.170;4.442;2022-09-06T07:46:46;37.50;91.90
25923;DHT22;13725;51.170;4.442;2022-09-06T07:49:12;37.40;89.50
25923;DHT22;13725;51.170;4.442;2022-09-06T07:51:38;37.70;90.20
25923;DHT22;13725;51.170;4.442;2022-09-06T07:54:05;38.10;88.50
25923;DHT22;13725;51.170;4.442;2022-09-06T07:56:32;37.80;86.70
25923;DHT22;13725;51.170;4.442;2022-09-06T07:58:57;38.10;86.80
25923;DHT22;13725;51.170;4.442;2022-09-06T08:01:30;38.60;85.20
25923;DHT22;13725;51.170;4.442;2022-09-06T08:03:58;38.40;82.70
25923;DHT22;13725;51.170;4.442;2022-09-06T08:06:25;38.20;82.50
25923;DHT22;13725;51.170;4.442;2022-09-06T08:08:52;37.90;81.50
25923;DHT22;13725;51.170;4.442;2022-09-06T08:11:18;38.10;82.90
25923;DHT22;13725;51.170;4.442;2022-09-06T08:13:48;37.10;81.00
25923;DHT22;13725;51.170;4.442;2022-09-06T08:16:14;37.10;84.10
25923;DHT22;13725;51.170;4.442;2022-09-06T08:18:41;36.50;82.20
25923;DHT22;13725;51.170;4.442;2022-09-06T08:21:09;36.70;84.80
25923;DHT22;13725;51.170;4.442;2022-09-06T08:23:37;37.80;82.30
25923;DHT22;13725;51.170;4.442;2022-09-06T08:26:02;38.30;80.90
25923;DHT22;13725;51.170;4.442;2022-09-06T08:28:28;38.70;80.80
25923;DHT22;13725;51.170;4.442;2022-09-06T08:30:54;38.60;80.40
25923;DHT22;13725;51.170;4.442;2022-09-06T08:33:20;39.20;79.10
25923;DHT22;13725;51.170;4.442;2022-09-06T08:35:56;39.70;79.10
25923;DHT22;13725;51.170;4.442;2022-09-06T08:38:22;40.20;76.40
25923;DHT22;13725;51.170;4.442;2022-09-06T08:40:51;40.90;75.20
25923;DHT22;13725;51.170;4.442;2022-09-06T08:43:18;41.40;74.00
25923;DHT22;13725;51.170;4.442;2022-09-06T08:45:53;41.50;74.10
25923;DHT22;13725;51.170;4.442;2022-09-06T08:48:20;42.00;72.40
25923;DHT22;13725;51.170;4.442;2022-09-06T08:50:57;41.90;71.20
25923;DHT22;13725;51.170;4.442;2022-09-06T08:53:26;42.00;70.50
25923;DHT22;13725;51.170;4.442;2022-09-06T08:56:04;42.20;70.60
25923;DHT22;13725;51.170;4.442;2022-09-06T09:01:18;41.80;69.30
25923;DHT22;13725;51.170;4.442;2022-09-06T09:03:47;41.80;70.80
25923;DHT22;13725;51.170;4.442;2022-09-06T09:06:13;41.80;69.40
25923;DHT22;13725;51.170;4.442;2022-09-06T09:11:20;42.60;68.70
25923;DHT22;13725;51.170;4.442;2022-09-06T09:16:20;42.40;68.00
25923;DHT22;13725;51.170;4.442;2022-09-06T09:18:48;43.10;66.80
25923;DHT22;13725;51.170;4.442;2022-09-06T09:21:19;43.50;65.50
25923;DHT22;13725;51.170;4.442;2022-09-06T09:23:54;44.20;64.80
25923;DHT22;13725;51.170;4.442;2022-09-06T09:26:22;44.60;65.30
25923;DHT22;13725;51.170;4.442;2022-09-06T09:29:21;44.80;63.40
25923;DHT22;13725;51.170;4.442;2022-09-06T09:31:48;45.20;64.50
25923;DHT22;13725;51.170;4.442;2022-09-06T09:37:12;46.10;63.00
25923;DHT22;13725;51.170;4.442;2022-09-06T09:39:42;45.70;62.70
25923;DHT22;13725;51.170;4.442;2022-09-06T09:42:08;45.40;62.90
25923;DHT22;13725;51.170;4.442;2022-09-06T09:44:41;44.00;62.60
25923;DHT22;13725;51.170;4.442;2022-09-06T09:47:29;42.20;65.30
25923;DHT22;13725;51.170;4.442;2022-09-06T09:49:56;41.90;67.30
25923;DHT22;13725;51.170;4.442;2022-09-06T09:52:27;42.60;66.30
25923;DHT22;13725;51.170;4.442;2022-09-06T09:55:01;43.70;64.30
25923;DHT22;13725;51.170;4.442;2022-09-06T09:57:30;44.60;63.50
25923;DHT22;13725;51.170;4.442;2022-09-06T09:59:59;45.40;62.50
25923;DHT22;13725;51.170;4.442;2022-09-06T10:02:33;45.90;61.80
25923;DHT22;13725;51.170;4.442;2022-09-06T10:05:16;45.80;60.80
25923;DHT22;13725;51.170;4.442;2022-09-06T10:07:51;46.40;60.70
25923;DHT22;13725;51.170;4.442;2022-09-06T10:10:22;46.40;59.60
25923;DHT22;13725;51.170;4.442;2022-09-06T10:12:48;46.70;59.50
25923;DHT22;13725;51.170;4.442;2022-09-06T10:15:38;47.00;59.50
25923;DHT22;13725;51.170;4.442;2022-09-06T10:18:04;47.20;58.60
25923;DHT22;13725;51.170;4.442;2022-09-06T10:21:00;47.10;58.00
25923;DHT22;13725;51.170;4.442;2022-09-06T10:29:03;46.90;57.20
25923;DHT22;13725;51.170;4.442;2022-09-06T10:40:05;47.50;55.10
25923;DHT22;13725;51.170;4.442;2022-09-06T10:43:02;47.70;55.70
25923;DHT22;13725;51.170;4.442;2022-09-06T10:48:32;47.60;54.70
25923;DHT22;13725;51.170;4.442;2022-09-06T10:51:00;47.60;55.20
25923;DHT22;13725;51.170;4.442;2022-09-06T10:56:10;47.90;54.60
25923;DHT22;13725;51.170;4.442;2022-09-06T10:59:00;48.20;54.10
25923;DHT22;13725;51.170;4.442;2022-09-06T11:01:33;48.40;53.60
25923;DHT22;13725;51.170;4.442;2022-09-06T11:04:04;48.20;53.90
25923;DHT22;13725;51.170;4.442;2022-09-06T11:06:34;48.30;52.60
25923;DHT22;13725;51.170;4.442;2022-09-06T11:09:33;48.50;52.80
25923;DHT22;13725;51.170;4.442;2022-09-06T11:12:13;48.40;53.10
25923;DHT22;13725;51.170;4.442;2022-09-06T11:14:41;48.50;52.70
25923;DHT22;13725;51.170;4.442;2022-09-06T11:17:32;48.80;52.30
25923;DHT22;13725;51.170;4.442;2022-09-06T11:20:41;48.80;51.90
25923;DHT22;13725;51.170;4.442;2022-09-06T11:26:21;49.00;52.00
25923;DHT22;13725;51.170;4.442;2022-09-06T11:28:55;49.00;51.70
25923;DHT22;13725;51.170;4.442;2022-09-06T11:31:27;49.10;51.00
25923;DHT22;13725;51.170;4.442;2022-09-06T11:34:08;49.30;50.50
25923;DHT22;13725;51.170;4.442;2022-09-06T11:36:57;49.30;50.40
25923;DHT22;13725;51.170;4.442;2022-09-06T11:39:36;49.50;50.80
25923;DHT22;13725;51.170;4.442;2022-09-06T11:42:07;49.00;50.90
25923;DHT22;13725;51.170;4.442;2022-09-06T11:44:53;48.90;50.30
25923;DHT22;13725;51.170;4.442;2022-09-06T11:55:44;49.00;50.10
25923;DHT22;13725;51.170;4.442;2022-09-06T12:00:43;48.50;49.30
25923;DHT22;13725;51.170;4.442;2022-09-06T12:08:43;48.60;50.30
25923;DHT22;13725;51.170;4.442;2022-09-06T12:14:25;48.60;49.80
25923;DHT22;13725;51.170;4.442;2022-09-06T12:20:03;48.70;49.30
25923;DHT22;13725;51.170;4.442;2022-09-06T12:27:34;48.40;49.70
25923;DHT22;13725;51.170;4.442;2022-09-06T12:30:12;48.50;49.50
25923;DHT22;13725;51.170;4.442;2022-09-06T12:32:44;48.80;49.00
25923;DHT22;13725;51.170;4.442;2022-09-06T12:35:26;48.40;49.90
25923;DHT22;13725;51.170;4.442;2022-09-06T12:37:57;48.30;49.30
25923;DHT22;13725;51.170;4.442;2022-09-06T12:40:25;48.40;48.90
25923;DHT22;13725;51.170;4.442;2022-09-06T12:42:51;48.10;49.80
25923;DHT22;13725;51.170;4.442;2022-09-06T12:45:20;47.30;50.00
25923;DHT22;13725;51.170;4.442;2022-09-06T12:47:46;47.10;49.80
25923;DHT22;13725;51.170;4.442;2022-09-06T12:50:24;47.10;50.50
25923;DHT22;13725;51.170;4.442;2022-09-06T12:52:53;47.30;50.70
25923;DHT22;13725;51.170;4.442;2022-09-06T12:55:23;47.30;50.40
25923;DHT22;13725;51.170;4.442;2022-09-06T12:57:54;46.90;51.10
25923;DHT22;13725;51.170;4.442;2022-09-06T13:00:22;46.70;50.60
25923;DHT22;13725;51.170;4.442;2022-09-06T13:03:03;46.60;51.30
25923;DHT22;13725;51.170;4.442;2022-09-06T13:05:30;46.80;50.70
25923;DHT22;13725;51.170;4.442;2022-09-06T13:07:59;46.70;51.20
25923;DHT22;13725;51.170;4.442;2022-09-06T13:10:26;46.50;50.70
25923;DHT22;13725;51.170;4.442;2022-09-06T13:12:55;46.10;51.20
25923;DHT22;13725;51.170;4.442;2022-09-06T13:15:27;46.10;51.60
25923;DHT22;13725;51.170;4.442;2022-09-06T13:17:53;46.20;52.10
25923;DHT22;13725;51.170;4.442;2022-09-06T13:22:47;45.60;51.70
25923;DHT22;13725;51.170;4.442;2022-09-06T13:25:23;44.50;52.20
25923;DHT22;13725;51.170;4.442;2022-09-06T13:27:54;43.10;54.30
25923;DHT22;13725;51.170;4.442;2022-09-06T13:30:40;42.50;55.00
25923;DHT22;13725;51.170;4.442;2022-09-06T13:33:17;42.00;54.80
25923;DHT22;13725;51.170;4.442;2022-09-06T13:35:50;41.30;56.60
25923;DHT22;13725;51.170;4.442;2022-09-06T13:38:28;40.20;56.40
25923;DHT22;13725;51.170;4.442;2022-09-06T13:40:55;39.40;59.20
25923;DHT22;13725;51.170;4.442;2022-09-06T13:43:23;38.80;59.80
25923;DHT22;13725;51.170;4.442;2022-09-06T13:46:03;38.70;58.50
25923;DHT22;13725;51.170;4.442;2022-09-06T13:48:29;38.90;60.10
25923;DHT22;13725;51.170;4.442;2022-09-06T13:50:55;39.60;61.10
25923;DHT22;13725;51.170;4.442;2022-09-06T13:53:21;40.60;58.50
25923;DHT22;13725;51.170;4.442;2022-09-06T13:55:47;41.40;58.10
25923;DHT22;13725;51.170;4.442;2022-09-06T13:58:12;41.80;56.60
25923;DHT22;13725;51.170;4.442;2022-09-06T14:00:38;42.30;55.80
25923;DHT22;13725;51.170;4.442;2022-09-06T14:03:07;42.50;55.20
25923;DHT22;13725;51.170;4.442;2022-09-06T14:05:33;42.60;54.80
25923;DHT22;13725;51.170;4.442;2022-09-06T14:08:03;43.00;53.50
25923;DHT22;13725;51.170;4.442;2022-09-06T14:10:29;42.90;54.50
25923;DHT22;13725;51.170;4.442;2022-09-06T14:12:55;42.00;54.60
25923;DHT22;13725;51.170;4.442;2022-09-06T14:15:20;41.00;55.70
25923;DHT22;13725;51.170;4.442;2022-09-06T14:17:46;39.80;56.90
25923;DHT22;13725;51.170;4.442;2022-09-06T14:20:12;38.70;57.50
25923;DHT22;13725;51.170;4.442;2022-09-06T14:22:38;37.70;60.90
25923;DHT22;13725;51.170;4.442;2022-09-06T14:25:04;36.70;62.90
25923;DHT22;13725;51.170;4.442;2022-09-06T14:27:31;36.00;65.10
25923;DHT22;13725;51.170;4.442;2022-09-06T14:29:57;35.50;66.30
25923;DHT22;13725;51.170;4.442;2022-09-06T14:32:23;35.10;66.30
25923;DHT22;13725;51.170;4.442;2022-09-06T14:34:51;34.60;67.70
25923;DHT22;13725;51.170;4.442;2022-09-06T14:37:16;34.20;68.10
25923;DHT22;13725;51.170;4.442;2022-09-06T14:39:42;34.10;68.50
25923;DHT22;13725;51.170;4.442;2022-09-06T14:42:08;33.80;68.40
25923;DHT22;13725;51.170;4.442;2022-09-06T14:44:33;33.60;69.30
25923;DHT22;13725;51.170;4.442;2022-09-06T14:46:59;33.30;71.10
25923;DHT22;13725;51.170;4.442;2022-09-06T14:49:25;33.00;72.30
25923;DHT22;13725;51.170;4.442;2022-09-06T14:51:51;32.80;71.70
25923;DHT22;13725;51.170;4.442;2022-09-06T14:54:18;32.60;73.40
25923;DHT22;13725;51.170;4.442;2022-09-06T14:56:44;32.70;69.70
25923;DHT22;13725;51.170;4.442;2022-09-06T14:59:10;32.70;71.50
25923;DHT22;13725;51.170;4.442;2022-09-06T15:01:37;32.60;70.70
25923;DHT22;13725;51.170;4.442;2022-09-06T15:04:05;32.30;69.60
25923;DHT22;13725;51.170;4.442;2022-09-06T15:06:32;32.20;73.60
25923;DHT22;13725;51.170;4.442;2022-09-06T15:08:58;32.10;70.50
25923;DHT22;13725;51.170;4.442;2022-09-06T15:11:35;31.90;71.00
25923;DHT22;13725;51.170;4.442;2022-09-06T15:14:03;31.70;72.30
25923;DHT22;13725;51.170;4.442;2022-09-06T15:16:31;31.60;74.70
25923;DHT22;13725;51.170;4.442;2022-09-06T15:18:58;31.30;75.70
25923;DHT22;13725;51.170;4.442;2022-09-06T15:21:24;31.10;76.80
25923;DHT22;13725;51.170;4.442;2022-09-06T15:23:51;30.80;77.20
25923;DHT22;13725;51.170;4.442;2022-09-06T15:26:17;30.60;78.30
25923;DHT22;13725;51.170;4.442;2022-09-06T15:28:43;30.40;79.20
25923;DHT22;13725;51.170;4.442;2022-09-06T15:31:10;30.20;79.90
25923;DHT22;13725;51.170;4.442;2022-09-06T15:33:36;30.10;80.60
25923;DHT22;13725;51.170;4.442;2022-09-06T15:36:04;30.10;81.90
25923;DHT22;13725;51.170;4.442;2022-09-06T15:38:42;30.00;80.50
25923;DHT22;13725;51.170;4.442;2022-09-06T15:41:20;29.90;81.30
25923;DHT22;13725;51.170;4.442;2022-09-06T15:43:49;29.90;78.50
25923;DHT22;13725;51.170;4.442;2022-09-06T15:46:17;29.80;81.20
25923;DHT22;13725;51.170;4.442;2022-09-06T15:48:48;29.90;81.70
25923;DHT22;13725;51.170;4.442;2022-09-06T15:51:16;29.90;82.30
25923;DHT22;13725;51.170;4.442;2022-09-06T15:53:43;29.90;82.40
25923;DHT22;13725;51.170;4.442;2022-09-06T15:56:12;29.90;82.50
25923;DHT22;13725;51.170;4.442;2022-09-06T15:58:38;29.80;82.00
25923;DHT22;13725;51.170;4.442;2022-09-06T16:01:14;29.60;83.10
25923;DHT22;13725;51.170;4.442;2022-09-06T16:03:43;29.50;79.40
25923;DHT22;13725;51.170;4.442;2022-09-06T16:06:21;29.40;83.40
25923;DHT22;13725;51.170;4.442;2022-09-06T16:08:49;29.30;84.00
25923;DHT22;13725;51.170;4.442;2022-09-06T16:11:16;29.20;84.90
25923;DHT22;13725;51.170;4.442;2022-09-06T16:13:43;29.20;83.50
25923;DHT22;13725;51.170;4.442;2022-09-06T16:16:12;29.20;84.60
25923;DHT22;13725;51.170;4.442;2022-09-06T16:18:40;29.00;86.20
25923;DHT22;13725;51.170;4.442;2022-09-06T16:21:12;29.00;88.10
25923;DHT22;13725;51.170;4.442;2022-09-06T16:23:40;28.90;89.30
25923;DHT22;13725;51.170;4.442;2022-09-06T16:26:07;28.90;90.40
25923;DHT22;13725;51.170;4.442;2022-09-06T16:28:34;29.00;90.80
25923;DHT22;13725;51.170;4.442;2022-09-06T16:31:02;29.10;90.80
25923;DHT22;13725;51.170;4.442;2022-09-06T16:33:28;29.10;90.80
25923;DHT22;13725;51.170;4.442;2022-09-06T16:35:54;29.20;90.90
25923;DHT22;13725;51.170;4.442;2022-09-06T16:38:19;29.30;90.20
25923;DHT22;13725;51.170;4.442;2022-09-06T16:40:45;29.30;90.40
25923;DHT22;13725;51.170;4.442;2022-09-06T16:43:12;29.30;90.00
25923;DHT22;13725;51.170;4.442;2022-09-06T16:45:38;29.30;90.40
25923;DHT22;13725;51.170;4.442;2022-09-06T16:48:05;29.30;90.70
25923;DHT22;13725;51.170;4.442;2022-09-06T16:50:32;29.30;90.70
25923;DHT22;13725;51.170;4.442;2022-09-06T16:52:58;29.40;90.20
25923;DHT22;13725;51.170;4.442;2022-09-06T16:55:24;29.30;90.40
25923;DHT22;13725;51.170;4.442;2022-09-06T16:57:49;29.30;90.50
25923;DHT22;13725;51.170;4.442;2022-09-06T17:00:15;29.20;90.80
25923;DHT22;13725;51.170;4.442;2022-09-06T17:02:42;29.10;90.80
25923;DHT22;13725;51.170;4.442;2022-09-06T17:05:11;29.00;91.40
25923;DHT22;13725;51.170;4.442;2022-09-06T17:07:39;28.90;92.20
25923;DHT22;13725;51.170;4.442;2022-09-06T17:10:05;28.80;92.50
25923;DHT22;13725;51.170;4.442;2022-09-06T17:12:31;28.60;92.70